sensor_id;sensor_type;location;lat;lon;timestamp;P1;durP1;ratioP1;P2;durP2;ratioP2
37451;SDS011;23314;51.114;6.900;2023-10-13T00:02:06;9.93;;;8.50;;
37451;SDS011;23314;51.114;6.900;2023-10-13T00:04:33;13.20;;;9.50;;
37451;SDS011;23314;51.114;6.900;2023-10-13T00:07:01;11.27;;;9.07;;
37451;SDS011;23314;51.114;6.900;2023-10-13T00:09:27;12.77;;;9.40;;
37451;SDS011;23314;51.114;6.900;2023-10-13T00:12:04;13.27;;;9.40;;
37451;SDS011;23314;51.114;6.900;2023-10-13T00:14:35;16.67;;;10.00;;
37451;SDS011;23314;51.114;6.900;2023-10-13T00:17:01;11.53;;;9.00;;
37451;SDS011;23314;51.114;6.900;2023-10-13T00:22:06;11.43;;;9.47;;
37451;SDS011;23314;51.114;6.900;2023-10-13T00:24:39;11.90;;;9.90;;
37451;SDS011;23314;51.114;6.900;2023-10-13T00:30:10;13.83;;;9.60;;
37451;SDS011;23314;51.114;6.900;2023-10-13T00:32:51;13.60;;;9.47;;
37451;SDS011;23314;51.114;6.900;2023-10-13T00:35:24;12.37;;;9.53;;
37451;SDS011;23314;51.114;6.900;2023-10-13T00:37:53;17.67;;;9.37;;
37451;SDS011;23314;51.114;6.900;2023-10-13T00:40:23;14.03;;;10.10;;
37451;SDS011;23314;51.114;6.900;2023-10-13T00:42:54;16.00;;;10.73;;
37451;SDS011;23314;51.114;6.900;2023-10-13T00:45:20;14.73;;;9.90;;
37451;SDS011;23314;51.114;6.900;2023-10-13T00:47:46;13.00;;;9.70;;
37451;SDS011;23314;51.114;6.900;2023-10-13T00:50:21;13.27;;;9.97;;
37451;SDS011;23314;51.114;6.900;2023-10-13T00:52:49;14.23;;;10.10;;
37451;SDS011;23314;51.114;6.900;2023-10-13T00:55:15;10.30;;;9.30;;
37451;SDS011;23314;51.114;6.900;2023-10-13T00:57:43;12.07;;;9.83;;
37451;SDS011;23314;51.114;6.900;2023-10-13T01:00:11;16.50;;;9.50;;
37451;SDS011;23314;51.114;6.900;2023-10-13T01:02:57;20.23;;;9.50;;
37451;SDS011;23314;51.114;6.900;2023-10-13T01:05:30;10.37;;;9.37;;
37451;SDS011;23314;51.114;6.900;2023-10-13T01:07:59;14.63;;;10.07;;
37451;SDS011;23314;51.114;6.900;2023-10-13T01:10:26;12.53;;;9.37;;
37451;SDS011;23314;51.114;6.900;2023-10-13T01:12:52;10.30;;;9.17;;
37451;SDS011;23314;51.114;6.900;2023-10-13T01:15:19;16.90;;;9.60;;
37451;SDS011;23314;51.114;6.900;2023-10-13T01:17:48;10.33;;;8.83;;
37451;SDS011;23314;51.114;6.900;2023-10-13T01:20:16;13.17;;;9.60;;
37451;SDS011;23314;51.114;6.900;2023-10-13T01:22:50;13.57;;;9.37;;
37451;SDS011;23314;51.114;6.900;2023-10-13T01:25:23;13.43;;;9.80;;
37451;SDS011;23314;51.114;6.900;2023-10-13T01:27:52;12.97;;;8.70;;
37451;SDS011;23314;51.114;6.900;2023-10-13T01:30:18;12.70;;;8.97;;
37451;SDS011;23314;51.114;6.900;2023-10-13T01:32:49;12.43;;;9.17;;
37451;SDS011;23314;51.114;6.900;2023-10-13T01:35:16;9.57;;;8.33;;
37451;SDS011;23314;51.114;6.900;2023-10-13T01:37:43;10.33;;;9.17;;
37451;SDS011;23314;51.114;6.900;2023-10-13T01:40:10;12.27;;;9.23;;
37451;SDS011;23314;51.114;6.900;2023-10-13T01:42:36;10.50;;;8.60;;
37451;SDS011;23314;51.114;6.900;2023-10-13T01:45:02;11.27;;;8.97;;
37451;SDS011;23314;51.114;6.900;2023-10-13T01:47:33;13.17;;;8.50;;
37451;SDS011;23314;51.114;6.900;2023-10-13T01:49:59;11.93;;;9.60;;
37451;SDS011;23314;51.114;6.900;2023-10-13T01:52:38;10.57;;;8.57;;
37451;SDS011;23314;51.114;6.900;2023-10-13T01:55:03;17.02;;;9.60;;
37451;SDS011;23314;51.114;6.900;2023-10-13T01:57:31;9.95;;;8.68;;
37451;SDS011;23314;51.114;6.900;2023-10-13T01:59:57;14.83;;;8.80;;
37451;SDS011;23314;51.114;6.900;2023-10-13T02:02:28;13.03;;;9.17;;
37451;SDS011;23314;51.114;6.900;2023-10-13T02:04:54;11.13;;;8.87;;
37451;SDS011;23314;51.114;6.900;2023-10-13T02:07:25;9.90;;;8.50;;
37451;SDS011;23314;51.114;6.900;2023-10-13T02:09:54;11.63;;;8.83;;
37451;SDS011;23314;51.114;6.900;2023-10-13T02:12:22;10.63;;;8.20;;
37451;SDS011;23314;51.114;6.900;2023-10-13T02:15:01;22.33;;;9.57;;
37451;SDS011;23314;51.114;6.900;2023-10-13T02:17:29;14.00;;;9.33;;
37451;SDS011;23314;51.114;6.900;2023-10-13T02:20:05;11.10;;;10.00;;
37451;SDS011;23314;51.114;6.900;2023-10-13T02:22:33;10.27;;;8.80;;
37451;SDS011;23314;51.114;6.900;2023-10-13T02:24:58;10.33;;;9.20;;
37451;SDS011;23314;51.114;6.900;2023-10-13T02:27:32;12.00;;;9.77;;
37451;SDS011;23314;51.114;6.900;2023-10-13T02:30:06;13.83;;;9.90;;
37451;SDS011;23314;51.114;6.900;2023-10-13T02:32:38;19.90;;;10.20;;
37451;SDS011;23314;51.114;6.900;2023-10-13T02:35:06;17.50;;;11.70;;
37451;SDS011;23314;51.114;6.900;2023-10-13T02:37:34;14.43;;;11.33;;
37451;SDS011;23314;51.114;6.900;2023-10-13T02:40:00;20.97;;;11.43;;
37451;SDS011;23314;51.114;6.900;2023-10-13T02:42:26;14.67;;;10.30;;
37451;SDS011;23314;51.114;6.900;2023-10-13T02:44:51;13.13;;;10.97;;
37451;SDS011;23314;51.114;6.900;2023-10-13T02:47:20;15.37;;;11.30;;
37451;SDS011;23314;51.114;6.900;2023-10-13T02:49:48;14.40;;;11.90;;
37451;SDS011;23314;51.114;6.900;2023-10-13T02:52:14;15.57;;;12.10;;
37451;SDS011;23314;51.114;6.900;2023-10-13T02:54:40;17.93;;;11.67;;
37451;SDS011;23314;51.114;6.900;2023-10-13T02:57:12;15.53;;;11.90;;
37451;SDS011;23314;51.114;6.900;2023-10-13T02:59:41;15.83;;;11.60;;
37451;SDS011;23314;51.114;6.900;2023-10-13T03:02:21;16.05;;;11.50;;
37451;SDS011;23314;51.114;6.900;2023-10-13T03:04:50;15.77;;;12.23;;
37451;SDS011;23314;51.114;6.900;2023-10-13T03:07:16;14.93;;;11.10;;
37451;SDS011;23314;51.114;6.900;2023-10-13T03:09:49;19.17;;;12.53;;
37451;SDS011;23314;51.114;6.900;2023-10-13T03:12:18;14.73;;;11.47;;
37451;SDS011;23314;51.114;6.900;2023-10-13T03:14:44;14.07;;;12.00;;
37451;SDS011;23314;51.114;6.900;2023-10-13T03:17:13;14.97;;;11.60;;
37451;SDS011;23314;51.114;6.900;2023-10-13T03:19:44;17.38;;;12.43;;
37451;SDS011;23314;51.114;6.900;2023-10-13T03:22:15;20.43;;;11.70;;
37451;SDS011;23314;51.114;6.900;2023-10-13T03:24:41;17.93;;;12.23;;
37451;SDS011;23314;51.114;6.900;2023-10-13T03:27:12;19.40;;;12.77;;
37451;SDS011;23314;51.114;6.900;2023-10-13T03:29:48;14.67;;;12.93;;
37451;SDS011;23314;51.114;6.900;2023-10-13T03:32:19;15.90;;;12.27;;
37451;SDS011;23314;51.114;6.900;2023-10-13T03:34:46;14.67;;;12.87;;
37451;SDS011;23314;51.114;6.900;2023-10-13T03:37:32;19.10;;;13.13;;
37451;SDS011;23314;51.114;6.900;2023-10-13T03:40:04;18.70;;;13.20;;
37451;SDS011;23314;51.114;6.900;2023-10-13T03:42:32;19.77;;;12.98;;
37451;SDS011;23314;51.114;6.900;2023-10-13T03:44:57;17.63;;;12.33;;
37451;SDS011;23314;51.114;6.900;2023-10-13T03:47:22;13.80;;;12.30;;
37451;SDS011;23314;51.114;6.900;2023-10-13T03:49:57;17.23;;;12.57;;
37451;SDS011;23314;51.114;6.900;2023-10-13T03:52:40;18.37;;;13.20;;
37451;SDS011;23314;51.114;6.900;2023-10-13T03:55:06;18.93;;;12.80;;
37451;SDS011;23314;51.114;6.900;2023-10-13T03:57:32;21.33;;;13.30;;
37451;SDS011;23314;51.114;6.900;2023-10-13T04:00:03;15.27;;;12.57;;
37451;SDS011;23314;51.114;6.900;2023-10-13T04:02:44;17.77;;;13.73;;
37451;SDS011;23314;51.114;6.900;2023-10-13T04:05:17;14.90;;;12.93;;
37451;SDS011;23314;51.114;6.900;2023-10-13T04:08:02;19.67;;;13.50;;
37451;SDS011;23314;51.114;6.900;2023-10-13T04:10:54;18.13;;;13.03;;
37451;SDS011;23314;51.114;6.900;2023-10-13T04:13:20;14.50;;;12.07;;
37451;SDS011;23314;51.114;6.900;2023-10-13T04:16:06;19.27;;;13.00;;
37451;SDS011;23314;51.114;6.900;2023-10-13T04:18:44;23.10;;;13.80;;
37451;SDS011;23314;51.114;6.900;2023-10-13T04:21:25;15.60;;;13.23;;
37451;SDS011;23314;51.114;6.900;2023-10-13T04:24:21;16.67;;;13.10;;
37451;SDS011;23314;51.114;6.900;2023-10-13T04:27:04;17.37;;;12.70;;
37451;SDS011;23314;51.114;6.900;2023-10-13T04:29:39;16.33;;;12.57;;
37451;SDS011;23314;51.114;6.900;2023-10-13T04:32:14;19.40;;;13.13;;
37451;SDS011;23314;51.114;6.900;2023-10-13T04:34:43;14.20;;;12.57;;
37451;SDS011;23314;51.114;6.900;2023-10-13T04:37:12;20.57;;;13.60;;
37451;SDS011;23314;51.114;6.900;2023-10-13T04:39:58;15.60;;;13.50;;
37451;SDS011;23314;51.114;6.900;2023-10-13T04:42:35;22.17;;;14.43;;
37451;SDS011;23314;51.114;6.900;2023-10-13T04:45:19;17.03;;;13.53;;
37451;SDS011;23314;51.114;6.900;2023-10-13T04:47:54;16.80;;;13.60;;
37451;SDS011;23314;51.114;6.900;2023-10-13T04:50:46;19.87;;;14.13;;
37451;SDS011;23314;51.114;6.900;2023-10-13T04:53:15;23.83;;;14.43;;
37451;SDS011;23314;51.114;6.900;2023-10-13T04:56:02;18.95;;;14.32;;
37451;SDS011;23314;51.114;6.900;2023-10-13T04:58:33;20.77;;;14.23;;
37451;SDS011;23314;51.114;6.900;2023-10-13T05:00:59;17.07;;;13.80;;
37451;SDS011;23314;51.114;6.900;2023-10-13T05:03:51;14.20;;;12.70;;
37451;SDS011;23314;51.114;6.900;2023-10-13T05:06:20;18.60;;;13.70;;
37451;SDS011;23314;51.114;6.900;2023-10-13T05:09:03;19.13;;;13.53;;
37451;SDS011;23314;51.114;6.900;2023-10-13T05:11:48;16.67;;;13.60;;
37451;SDS011;23314;51.114;6.900;2023-10-13T05:14:32;23.10;;;14.10;;
37451;SDS011;23314;51.114;6.900;2023-10-13T05:17:15;21.87;;;13.63;;
37451;SDS011;23314;51.114;6.900;2023-10-13T05:19:59;17.20;;;13.43;;
37451;SDS011;23314;51.114;6.900;2023-10-13T05:22:43;19.10;;;14.00;;
37451;SDS011;23314;51.114;6.900;2023-10-13T05:25:27;17.17;;;13.60;;
37451;SDS011;23314;51.114;6.900;2023-10-13T05:28:11;15.77;;;13.17;;
37451;SDS011;23314;51.114;6.900;2023-10-13T05:30:58;18.87;;;13.97;;
37451;SDS011;23314;51.114;6.900;2023-10-13T05:33:42;16.27;;;12.90;;
37451;SDS011;23314;51.114;6.900;2023-10-13T05:36:26;18.43;;;13.37;;
37451;SDS011;23314;51.114;6.900;2023-10-13T05:39:10;17.57;;;14.17;;
37451;SDS011;23314;51.114;6.900;2023-10-13T05:41:54;19.53;;;14.57;;
37451;SDS011;23314;51.114;6.900;2023-10-13T05:44:38;21.27;;;14.90;;
37451;SDS011;23314;51.114;6.900;2023-10-13T05:47:20;23.33;;;13.57;;
37451;SDS011;23314;51.114;6.900;2023-10-13T05:50:05;16.13;;;13.57;;
37451;SDS011;23314;51.114;6.900;2023-10-13T05:52:46;18.08;;;13.88;;
37451;SDS011;23314;51.114;6.900;2023-10-13T05:55:27;15.87;;;13.70;;
37451;SDS011;23314;51.114;6.900;2023-10-13T05:58:12;21.37;;;13.87;;
37451;SDS011;23314;51.114;6.900;2023-10-13T06:00:57;17.40;;;13.30;;
37451;SDS011;23314;51.114;6.900;2023-10-13T06:03:41;20.10;;;13.47;;
37451;SDS011;23314;51.114;6.900;2023-10-13T06:06:25;24.90;;;14.67;;
37451;SDS011;23314;51.114;6.900;2023-10-13T06:09:09;20.47;;;14.20;;
37451;SDS011;23314;51.114;6.900;2023-10-13T06:11:53;17.90;;;14.23;;
37451;SDS011;23314;51.114;6.900;2023-10-13T06:14:37;17.77;;;14.50;;
37451;SDS011;23314;51.114;6.900;2023-10-13T06:17:21;16.13;;;12.97;;
37451;SDS011;23314;51.114;6.900;2023-10-13T06:20:05;15.88;;;14.15;;
37451;SDS011;23314;51.114;6.900;2023-10-13T06:22:50;17.57;;;12.87;;
37451;SDS011;23314;51.114;6.900;2023-10-13T06:25:34;21.58;;;13.18;;
37451;SDS011;23314;51.114;6.900;2023-10-13T06:28:18;18.90;;;13.50;;
37451;SDS011;23314;51.114;6.900;2023-10-13T06:31:04;21.03;;;13.50;;
37451;SDS011;23314;51.114;6.900;2023-10-13T06:33:31;17.30;;;12.73;;
37451;SDS011;23314;51.114;6.900;2023-10-13T06:36:02;13.97;;;12.47;;
37451;SDS011;23314;51.114;6.900;2023-10-13T06:38:28;18.93;;;12.67;;
37451;SDS011;23314;51.114;6.900;2023-10-13T06:41:04;18.03;;;12.27;;
37451;SDS011;23314;51.114;6.900;2023-10-13T06:43:37;17.27;;;12.13;;
37451;SDS011;23314;51.114;6.900;2023-10-13T06:46:09;17.67;;;11.70;;
37451;SDS011;23314;51.114;6.900;2023-10-13T06:48:41;20.70;;;13.33;;
37451;SDS011;23314;51.114;6.900;2023-10-13T06:51:08;17.17;;;13.97;;
37451;SDS011;23314;51.114;6.900;2023-10-13T06:53:44;21.92;;;14.18;;
37451;SDS011;23314;51.114;6.900;2023-10-13T06:56:12;21.50;;;14.02;;
37451;SDS011;23314;51.114;6.900;2023-10-13T06:58:47;21.20;;;14.00;;
37451;SDS011;23314;51.114;6.900;2023-10-13T07:01:13;20.67;;;14.03;;
37451;SDS011;23314;51.114;6.900;2023-10-13T07:03:47;23.20;;;13.30;;
37451;SDS011;23314;51.114;6.900;2023-10-13T07:06:22;20.33;;;12.23;;
37451;SDS011;23314;51.114;6.900;2023-10-13T07:08:48;18.75;;;11.90;;
37451;SDS011;23314;51.114;6.900;2023-10-13T07:11:26;16.23;;;11.67;;
37451;SDS011;23314;51.114;6.900;2023-10-13T07:14:04;16.35;;;11.38;;
37451;SDS011;23314;51.114;6.900;2023-10-13T07:17:09;16.17;;;11.25;;
37451;SDS011;23314;51.114;6.900;2023-10-13T07:19:30;16.83;;;11.07;;
37451;SDS011;23314;51.114;6.900;2023-10-13T07:21:56;18.80;;;11.50;;
37451;SDS011;23314;51.114;6.900;2023-10-13T07:24:28;18.98;;;10.82;;
37451;SDS011;23314;51.114;6.900;2023-10-13T07:26:57;21.90;;;10.43;;
37451;SDS011;23314;51.114;6.900;2023-10-13T07:29:28;16.45;;;11.30;;
37451;SDS011;23314;51.114;6.900;2023-10-13T07:31:53;21.20;;;10.77;;
37451;SDS011;23314;51.114;6.900;2023-10-13T07:34:19;17.33;;;10.07;;
37451;SDS011;23314;51.114;6.900;2023-10-13T07:36:57;19.67;;;10.98;;
37451;SDS011;23314;51.114;6.900;2023-10-13T07:39:26;20.35;;;10.40;;
37451;SDS011;23314;51.114;6.900;2023-10-13T07:42:05;14.65;;;9.85;;
37451;SDS011;23314;51.114;6.900;2023-10-13T07:44:34;14.15;;;9.85;;
37451;SDS011;23314;51.114;6.900;2023-10-13T07:47:01;15.98;;;10.10;;
37451;SDS011;23314;51.114;6.900;2023-10-13T07:49:36;23.13;;;9.95;;
37451;SDS011;23314;51.114;6.900;2023-10-13T07:52:04;21.17;;;10.88;;
37451;SDS011;23314;51.114;6.900;2023-10-13T07:54:46;18.13;;;9.77;;
37451;SDS011;23314;51.114;6.900;2023-10-13T07:57:15;19.40;;;10.07;;
37451;SDS011;23314;51.114;6.900;2023-10-13T07:59:42;15.93;;;9.88;;
37451;SDS011;23314;51.114;6.900;2023-10-13T08:02:17;23.48;;;9.60;;
37451;SDS011;23314;51.114;6.900;2023-10-13T08:05:02;16.77;;;9.88;;
37451;SDS011;23314;51.114;6.900;2023-10-13T08:07:29;18.65;;;9.18;;
37451;SDS011;23314;51.114;6.900;2023-10-13T08:09:56;18.77;;;8.57;;
37451;SDS011;23314;51.114;6.900;2023-10-13T08:12:24;15.98;;;8.65;;
37451;SDS011;23314;51.114;6.900;2023-10-13T08:14:50;16.63;;;8.52;;
37451;SDS011;23314;51.114;6.900;2023-10-13T08:17:34;21.92;;;9.05;;
37451;SDS011;23314;51.114;6.900;2023-10-13T08:19:59;14.85;;;8.43;;
37451;SDS011;23314;51.114;6.900;2023-10-13T08:22:36;15.88;;;7.90;;
37451;SDS011;23314;51.114;6.900;2023-10-13T08:25:03;13.82;;;8.27;;
37451;SDS011;23314;51.114;6.900;2023-10-13T08:28:10;15.48;;;8.70;;
37451;SDS011;23314;51.114;6.900;2023-10-13T08:30:54;20.35;;;9.07;;
37451;SDS011;23314;51.114;6.900;2023-10-13T08:33:19;17.08;;;8.82;;
37451;SDS011;23314;51.114;6.900;2023-10-13T08:35:49;18.20;;;9.15;;
37451;SDS011;23314;51.114;6.900;2023-10-13T08:38:30;19.73;;;8.95;;
37451;SDS011;23314;51.114;6.900;2023-10-13T08:41:08;17.70;;;8.07;;
37451;SDS011;23314;51.114;6.900;2023-10-13T08:43:49;14.77;;;7.70;;
37451;SDS011;23314;51.114;6.900;2023-10-13T08:46:16;16.15;;;7.35;;
37451;SDS011;23314;51.114;6.900;2023-10-13T08:48:56;15.35;;;7.45;;
37451;SDS011;23314;51.114;6.900;2023-10-13T08:51:40;16.60;;;7.45;;
37451;SDS011;23314;51.114;6.900;2023-10-13T08:54:14;15.35;;;6.80;;
37451;SDS011;23314;51.114;6.900;2023-10-13T08:56:59;15.23;;;6.53;;
37451;SDS011;23314;51.114;6.900;2023-10-13T08:59:44;14.93;;;6.40;;
37451;SDS011;23314;51.114;6.900;2023-10-13T09:02:18;14.13;;;6.28;;
37451;SDS011;23314;51.114;6.900;2023-10-13T09:05:23;13.88;;;6.45;;
37451;SDS011;23314;51.114;6.900;2023-10-13T09:08:06;13.70;;;5.85;;
37451;SDS011;23314;51.114;6.900;2023-10-13T09:10:40;16.50;;;6.20;;
37451;SDS011;23314;51.114;6.900;2023-10-13T09:13:34;13.70;;;5.90;;
37451;SDS011;23314;51.114;6.900;2023-10-13T09:16:12;16.35;;;6.60;;
37451;SDS011;23314;51.114;6.900;2023-10-13T09:19:06;12.57;;;6.40;;
37451;SDS011;23314;51.114;6.900;2023-10-13T09:21:38;12.38;;;6.35;;
37451;SDS011;23314;51.114;6.900;2023-10-13T09:24:11;16.33;;;6.20;;
37451;SDS011;23314;51.114;6.900;2023-10-13T09:26:47;13.43;;;6.40;;
37451;SDS011;23314;51.114;6.900;2023-10-13T09:29:18;17.45;;;6.10;;
37451;SDS011;23314;51.114;6.900;2023-10-13T09:31:45;17.75;;;5.82;;
37451;SDS011;23314;51.114;6.900;2023-10-13T09:34:20;14.80;;;5.45;;
37451;SDS011;23314;51.114;6.900;2023-10-13T09:36:48;12.27;;;6.10;;
37451;SDS011;23314;51.114;6.900;2023-10-13T09:39:21;12.20;;;5.78;;
37451;SDS011;23314;51.114;6.900;2023-10-13T09:41:56;19.67;;;6.47;;
37451;SDS011;23314;51.114;6.900;2023-10-13T09:44:24;18.60;;;6.53;;
37451;SDS011;23314;51.114;6.900;2023-10-13T09:46:51;14.57;;;5.60;;
37451;SDS011;23314;51.114;6.900;2023-10-13T09:49:19;10.40;;;5.85;;
37451;SDS011;23314;51.114;6.900;2023-10-13T09:52:09;11.82;;;6.00;;
37451;SDS011;23314;51.114;6.900;2023-10-13T09:54:44;10.63;;;6.40;;
37451;SDS011;23314;51.114;6.900;2023-10-13T09:57:24;16.88;;;6.05;;
37451;SDS011;23314;51.114;6.900;2023-10-13T10:00:06;17.50;;;5.80;;
37451;SDS011;23314;51.114;6.900;2023-10-13T10:02:53;10.23;;;5.97;;
37451;SDS011;23314;51.114;6.900;2023-10-13T10:05:26;15.43;;;5.95;;
37451;SDS011;23314;51.114;6.900;2023-10-13T10:07:57;14.88;;;6.28;;
37451;SDS011;23314;51.114;6.900;2023-10-13T10:10:27;9.13;;;5.65;;
37451;SDS011;23314;51.114;6.900;2023-10-13T10:16:12;13.52;;;6.35;;
37451;SDS011;23314;51.114;6.900;2023-10-13T10:18:44;16.67;;;7.03;;
37451;SDS011;23314;51.114;6.900;2023-10-13T10:21:10;17.48;;;6.60;;
37451;SDS011;23314;51.114;6.900;2023-10-13T10:23:36;15.63;;;6.50;;
37451;SDS011;23314;51.114;6.900;2023-10-13T10:26:14;13.75;;;6.82;;
37451;SDS011;23314;51.114;6.900;2023-10-13T10:28:45;12.45;;;7.45;;
37451;SDS011;23314;51.114;6.900;2023-10-13T10:31:11;17.05;;;6.90;;
37451;SDS011;23314;51.114;6.900;2023-10-13T10:33:44;8.63;;;6.28;;
37451;SDS011;23314;51.114;6.900;2023-10-13T10:36:11;15.23;;;6.65;;
37451;SDS011;23314;51.114;6.900;2023-10-13T10:38:52;19.80;;;6.60;;
37451;SDS011;23314;51.114;6.900;2023-10-13T10:41:24;15.85;;;7.18;;
37451;SDS011;23314;51.114;6.900;2023-10-13T10:43:54;19.75;;;7.18;;
37451;SDS011;23314;51.114;6.900;2023-10-13T10:46:29;10.55;;;6.78;;
37451;SDS011;23314;51.114;6.900;2023-10-13T10:49:05;14.25;;;6.95;;
37451;SDS011;23314;51.114;6.900;2023-10-13T10:51:30;13.55;;;6.72;;
37451;SDS011;23314;51.114;6.900;2023-10-13T10:54:00;14.40;;;6.32;;
37451;SDS011;23314;51.114;6.900;2023-10-13T10:56:39;13.32;;;6.50;;
37451;SDS011;23314;51.114;6.900;2023-10-13T10:59:05;10.32;;;6.60;;
37451;SDS011;23314;51.114;6.900;2023-10-13T11:01:42;14.90;;;6.80;;
37451;SDS011;23314;51.114;6.900;2023-10-13T11:04:18;17.98;;;6.97;;
37451;SDS011;23314;51.114;6.900;2023-10-13T11:06:52;12.15;;;6.38;;
37451;SDS011;23314;51.114;6.900;2023-10-13T11:09:26;9.20;;;6.65;;
37451;SDS011;23314;51.114;6.900;2023-10-13T11:11:55;22.35;;;7.70;;
37451;SDS011;23314;51.114;6.900;2023-10-13T11:14:28;17.95;;;6.78;;
37451;SDS011;23314;51.114;6.900;2023-10-13T11:16:57;12.82;;;6.35;;
37451;SDS011;23314;51.114;6.900;2023-10-13T11:19:33;22.50;;;6.90;;
37451;SDS011;23314;51.114;6.900;2023-10-13T11:22:09;13.18;;;6.85;;
37451;SDS011;23314;51.114;6.900;2023-10-13T11:24:41;15.98;;;6.57;;
37451;SDS011;23314;51.114;6.900;2023-10-13T11:27:15;18.50;;;5.90;;
37451;SDS011;23314;51.114;6.900;2023-10-13T11:30:07;16.35;;;6.72;;
37451;SDS011;23314;51.114;6.900;2023-10-13T11:32:37;13.00;;;6.47;;
37451;SDS011;23314;51.114;6.900;2023-10-13T11:35:07;17.42;;;6.90;;
37451;SDS011;23314;51.114;6.900;2023-10-13T11:37:54;23.63;;;7.47;;
37451;SDS011;23314;51.114;6.900;2023-10-13T11:40:29;13.77;;;7.25;;
37451;SDS011;23314;51.114;6.900;2023-10-13T11:43:30;11.40;;;6.32;;
37451;SDS011;23314;51.114;6.900;2023-10-13T11:46:08;15.48;;;6.60;;
37451;SDS011;23314;51.114;6.900;2023-10-13T11:48:37;12.85;;;6.40;;
37451;SDS011;23314;51.114;6.900;2023-10-13T11:51:03;13.10;;;6.32;;
37451;SDS011;23314;51.114;6.900;2023-10-13T11:53:33;11.90;;;6.57;;
37451;SDS011;23314;51.114;6.900;2023-10-13T11:55:59;13.68;;;6.68;;
37451;SDS011;23314;51.114;6.900;2023-10-13T11:58:24;12.10;;;6.00;;
37451;SDS011;23314;51.114;6.900;2023-10-13T12:00:50;14.95;;;6.28;;
37451;SDS011;23314;51.114;6.900;2023-10-13T12:03:16;10.63;;;6.50;;
37451;SDS011;23314;51.114;6.900;2023-10-13T12:05:59;15.63;;;6.72;;
37451;SDS011;23314;51.114;6.900;2023-10-13T12:08:45;11.60;;;6.60;;
37451;SDS011;23314;51.114;6.900;2023-10-13T12:11:17;14.00;;;6.20;;
37451;SDS011;23314;51.114;6.900;2023-10-13T12:13:56;13.93;;;5.82;;
37451;SDS011;23314;51.114;6.900;2023-10-13T12:16:21;15.55;;;6.35;;
37451;SDS011;23314;51.114;6.900;2023-10-13T12:18:47;16.02;;;6.20;;
37451;SDS011;23314;51.114;6.900;2023-10-13T12:21:18;18.48;;;6.07;;
37451;SDS011;23314;51.114;6.900;2023-10-13T12:23:46;11.40;;;5.93;;
37451;SDS011;23314;51.114;6.900;2023-10-13T12:26:11;15.55;;;5.75;;
37451;SDS011;23314;51.114;6.900;2023-10-13T12:28:44;18.10;;;6.43;;
37451;SDS011;23314;51.114;6.900;2023-10-13T12:31:16;16.23;;;6.13;;
37451;SDS011;23314;51.114;6.900;2023-10-13T12:33:42;16.15;;;6.13;;
37451;SDS011;23314;51.114;6.900;2023-10-13T12:36:08;17.30;;;6.55;;
37451;SDS011;23314;51.114;6.900;2023-10-13T12:38:55;15.02;;;5.80;;
37451;SDS011;23314;51.114;6.900;2023-10-13T12:41:32;14.43;;;5.72;;
37451;SDS011;23314;51.114;6.900;2023-10-13T12:44:17;13.13;;;6.00;;
37451;SDS011;23314;51.114;6.900;2023-10-13T12:47:14;14.88;;;6.45;;
37451;SDS011;23314;51.114;6.900;2023-10-13T12:49:58;14.93;;;6.68;;
37451;SDS011;23314;51.114;6.900;2023-10-13T12:52:23;15.68;;;5.80;;
37451;SDS011;23314;51.114;6.900;2023-10-13T12:54:56;19.60;;;5.95;;
37451;SDS011;23314;51.114;6.900;2023-10-13T12:57:25;11.02;;;6.03;;
37451;SDS011;23314;51.114;6.900;2023-10-13T12:59:54;12.18;;;5.93;;
37451;SDS011;23314;51.114;6.900;2023-10-13T13:02:23;11.50;;;5.70;;
37451;SDS011;23314;51.114;6.900;2023-10-13T13:04:53;15.27;;;5.90;;
37451;SDS011;23314;51.114;6.900;2023-10-13T13:07:22;11.82;;;6.43;;
37451;SDS011;23314;51.114;6.900;2023-10-13T13:09:54;13.38;;;6.53;;
37451;SDS011;23314;51.114;6.900;2023-10-13T13:12:23;12.23;;;6.07;;
37451;SDS011;23314;51.114;6.900;2023-10-13T13:14:49;15.15;;;5.53;;
37451;SDS011;23314;51.114;6.900;2023-10-13T13:17:20;14.73;;;5.88;;
37451;SDS011;23314;51.114;6.900;2023-10-13T13:19:45;13.13;;;6.05;;
37451;SDS011;23314;51.114;6.900;2023-10-13T13:22:11;11.85;;;5.82;;
37451;SDS011;23314;51.114;6.900;2023-10-13T13:24:39;13.40;;;5.80;;
37451;SDS011;23314;51.114;6.900;2023-10-13T13:27:13;15.45;;;5.70;;
37451;SDS011;23314;51.114;6.900;2023-10-13T13:29:48;15.73;;;6.45;;
37451;SDS011;23314;51.114;6.900;2023-10-13T13:32:14;13.93;;;6.70;;
37451;SDS011;23314;51.114;6.900;2023-10-13T13:34:49;15.90;;;5.85;;
37451;SDS011;23314;51.114;6.900;2023-10-13T13:37:33;15.35;;;6.25;;
37451;SDS011;23314;51.114;6.900;2023-10-13T13:39:59;14.30;;;5.70;;
37451;SDS011;23314;51.114;6.900;2023-10-13T13:42:39;15.70;;;6.63;;
37451;SDS011;23314;51.114;6.900;2023-10-13T13:45:06;11.10;;;6.30;;
37451;SDS011;23314;51.114;6.900;2023-10-13T13:47:37;16.27;;;6.13;;
37451;SDS011;23314;51.114;6.900;2023-10-13T13:50:02;14.52;;;6.40;;
37451;SDS011;23314;51.114;6.900;2023-10-13T13:52:39;19.58;;;6.68;;
37451;SDS011;23314;51.114;6.900;2023-10-13T13:55:11;21.80;;;6.07;;
37451;SDS011;23314;51.114;6.900;2023-10-13T13:57:42;14.38;;;5.80;;
37451;SDS011;23314;51.114;6.900;2023-10-13T14:00:09;15.32;;;5.65;;
37451;SDS011;23314;51.114;6.900;2023-10-13T14:02:41;13.32;;;6.03;;
37451;SDS011;23314;51.114;6.900;2023-10-13T14:05:12;15.57;;;5.97;;
37451;SDS011;23314;51.114;6.900;2023-10-13T14:07:44;12.50;;;6.13;;
37451;SDS011;23314;51.114;6.900;2023-10-13T14:10:18;13.13;;;5.38;;
37451;SDS011;23314;51.114;6.900;2023-10-13T14:12:57;14.70;;;6.07;;
37451;SDS011;23314;51.114;6.900;2023-10-13T14:15:32;19.67;;;6.43;;
37451;SDS011;23314;51.114;6.900;2023-10-13T14:18:05;16.98;;;6.35;;
37451;SDS011;23314;51.114;6.900;2023-10-13T14:20:32;14.23;;;6.13;;
37451;SDS011;23314;51.114;6.900;2023-10-13T14:23:02;11.75;;;5.90;;
37451;SDS011;23314;51.114;6.900;2023-10-13T14:25:32;18.60;;;5.95;;
37451;SDS011;23314;51.114;6.900;2023-10-13T14:28:03;19.67;;;6.47;;
37451;SDS011;23314;51.114;6.900;2023-10-13T14:30:32;14.07;;;6.22;;
37451;SDS011;23314;51.114;6.900;2023-10-13T14:32:58;17.55;;;6.43;;
37451;SDS011;23314;51.114;6.900;2023-10-13T14:35:24;16.55;;;5.50;;
37451;SDS011;23314;51.114;6.900;2023-10-13T14:37:53;17.10;;;5.57;;
37451;SDS011;23314;51.114;6.900;2023-10-13T14:40:19;19.83;;;5.68;;
37451;SDS011;23314;51.114;6.900;2023-10-13T14:42:47;19.63;;;6.43;;
37451;SDS011;23314;51.114;6.900;2023-10-13T14:45:13;20.67;;;6.35;;
37451;SDS011;23314;51.114;6.900;2023-10-13T14:47:41;16.83;;;6.07;;
37451;SDS011;23314;51.114;6.900;2023-10-13T14:50:07;23.27;;;6.47;;
37451;SDS011;23314;51.114;6.900;2023-10-13T14:52:39;16.80;;;6.07;;
37451;SDS011;23314;51.114;6.900;2023-10-13T14:55:04;15.90;;;6.28;;
37451;SDS011;23314;51.114;6.900;2023-10-13T14:57:32;13.38;;;5.05;;
37451;SDS011;23314;51.114;6.900;2023-10-13T14:59:58;25.08;;;6.63;;
37451;SDS011;23314;51.114;6.900;2023-10-13T15:02:23;14.60;;;6.28;;
37451;SDS011;23314;51.114;6.900;2023-10-13T15:04:49;14.95;;;5.50;;
37451;SDS011;23314;51.114;6.900;2023-10-13T15:07:15;17.70;;;5.53;;
37451;SDS011;23314;51.114;6.900;2023-10-13T15:09:42;18.08;;;6.07;;
37451;SDS011;23314;51.114;6.900;2023-10-13T15:12:11;19.40;;;5.97;;
37451;SDS011;23314;51.114;6.900;2023-10-13T15:14:40;18.35;;;5.65;;
37451;SDS011;23314;51.114;6.900;2023-10-13T15:17:08;18.08;;;5.60;;